createdAt,value
2023-02-12T00:00:45.006Z,99.54
2023-02-12T00:04:06.960Z,99.91
2023-02-12T00:07:31.844Z,99.62
2023-02-12T00:10:53.577Z,99.29
2023-02-12T00:14:16.801Z,99.56
2023-02-12T00:17:38.883Z,100.00
2023-02-12T00:21:01.391Z,99.42
2023-02-12T00:24:23.520Z,99.90
2023-02-12T00:27:45.478Z,99.54
2023-02-12T00:31:10.755Z,99.22
2023-02-12T00:34:33.583Z,99.15
2023-02-12T00:37:55.286Z,99.19
2023-02-12T00:41:17.183Z,99.19
2023-02-12T00:44:38.844Z,98.87
2023-02-12T00:48:02.012Z,98.68
2023-02-12T00:51:24.819Z,99.16
2023-02-12T00:54:46.972Z,99.21
2023-02-12T00:58:09.582Z,98.59
2023-02-12T01:01:31.543Z,99.15
2023-02-12T01:04:54.739Z,98.93
2023-02-12T01:08:18.012Z,99.26
2023-02-12T01:11:39.854Z,99.28
2023-02-12T01:15:02.223Z,99.38
2023-02-12T01:18:24.430Z,99.01
2023-02-12T01:21:47.621Z,99.28
2023-02-12T01:25:10.347Z,99.59
2023-02-12T01:28:32.401Z,99.88
2023-02-12T01:31:54.167Z,100.00
2023-02-12T01:35:15.769Z,100.00
2023-02-12T01:38:39.117Z,100.00
2023-02-12T01:42:01.270Z,100.00
2023-02-12T01:45:56.329Z,99.92
2023-02-12T01:49:23.921Z,99.64
2023-02-12T01:52:49.643Z,100.00
2023-02-12T01:56:13.009Z,99.97
2023-02-12T01:59:36.984Z,100.00
2023-02-12T02:03:01.404Z,100.00
2023-02-12T02:06:27.910Z,100.00
2023-02-12T02:09:50.174Z,100.00
2023-02-12T02:13:30.775Z,99.88
2023-02-12T02:17:07.926Z,100.00
2023-02-12T02:21:04.462Z,100.00
2023-02-12T02:25:02.591Z,100.00
2023-02-12T02:28:57.741Z,100.00
2023-02-12T02:32:26.108Z,100.00
2023-02-12T02:35:55.166Z,100.00
2023-02-12T02:39:24.185Z,100.00
2023-02-12T02:42:52.991Z,100.00
2023-02-12T02:46:21.907Z,100.00
2023-02-12T02:49:53.755Z,100.00
2023-02-12T02:53:19.802Z,100.00
2023-02-12T02:56:46.339Z,99.89
2023-02-12T03:00:14.672Z,99.46
2023-02-12T03:03:39.614Z,99.11
2023-02-12T03:07:09.910Z,99.30
2023-02-12T03:10:35.989Z,99.50
2023-02-12T03:14:02.159Z,98.78
2023-02-12T03:17:28.619Z,98.91
2023-02-12T03:20:55.965Z,99.48
2023-02-12T03:24:25.448Z,99.08
2023-02-12T03:27:51.589Z,98.79
2023-02-12T03:31:24.831Z,97.80
2023-02-12T03:34:51.871Z,97.16
2023-02-12T03:38:22.042Z,97.03
2023-02-12T03:41:49.416Z,97.44
2023-02-12T03:45:20.468Z,97.57
2023-02-12T03:48:48.118Z,97.27
2023-02-12T03:52:10.326Z,97.21
2023-02-12T03:55:36.528Z,97.50
2023-02-12T03:59:00.035Z,96.75
2023-02-12T04:02:21.885Z,96.43
2023-02-12T04:05:43.729Z,96.58
2023-02-12T04:09:08.746Z,96.55
2023-02-12T04:12:45.325Z,96.05
2023-02-12T04:16:22.615Z,96.48
2023-02-12T04:19:54.697Z,95.95
2023-02-12T04:23:31.947Z,95.95
2023-02-12T04:26:58.735Z,95.65
2023-02-12T04:30:25.573Z,95.39
2023-02-12T04:33:56.450Z,95.42
2023-02-12T04:37:20.839Z,95.34
2023-02-12T04:40:43.504Z,96.24
2023-02-12T04:44:16.844Z,96.07
2023-02-12T04:47:39.007Z,96.00
2023-02-12T04:51:02.763Z,95.90
2023-02-12T04:54:25.716Z,95.42
2023-02-12T04:57:47.489Z,95.88
2023-02-12T05:01:09.417Z,95.33
2023-02-12T05:04:31.095Z,95.50
2023-02-12T05:07:54.381Z,95.41
2023-02-12T05:11:16.552Z,97.01
2023-02-12T05:14:38.174Z,96.48
2023-02-12T05:17:59.911Z,96.79
2023-02-12T05:21:21.681Z,96.62
2023-02-12T05:24:44.985Z,96.81
2023-02-12T05:28:07.003Z,96.65
2023-02-12T05:31:29.096Z,96.60
2023-02-12T05:34:50.788Z,96.17
2023-02-12T05:38:12.554Z,96.73
2023-02-12T05:41:36.187Z,97.22
2023-02-12T05:44:58.529Z,96.98
2023-02-12T05:48:20.608Z,97.02
2023-02-12T05:51:42.424Z,97.04
2023-02-12T05:55:04.786Z,96.23
2023-02-12T05:58:28.118Z,97.44
2023-02-12T06:01:51.907Z,97.04
2023-02-12T06:05:13.553Z,97.26
2023-02-12T06:08:35.690Z,97.21
2023-02-12T06:11:57.509Z,97.17
2023-02-12T06:15:20.830Z,97.82
2023-02-12T06:18:42.840Z,98.30
2023-02-12T06:22:04.599Z,98.04
2023-02-12T06:25:26.365Z,98.18
2023-02-12T06:28:48.308Z,98.86
2023-02-12T06:32:13.752Z,99.21
2023-02-12T06:35:36.800Z,99.43
2023-02-12T06:38:58.758Z,100.00
2023-02-12T06:42:20.447Z,100.00
2023-02-12T06:45:42.526Z,100.00
2023-02-12T06:49:05.771Z,100.00
2023-02-12T06:52:28.415Z,100.00
2023-02-12T06:55:50.223Z,100.00
2023-02-12T06:59:14.809Z,100.00
2023-02-12T07:02:38.942Z,100.00
2023-02-12T07:06:04.544Z,100.00
2023-02-12T07:09:26.296Z,100.00
2023-02-12T07:12:48.181Z,100.00
2023-02-12T07:16:12.089Z,100.00
2023-02-12T07:19:33.881Z,100.00
2023-02-12T07:22:57.149Z,100.00
2023-02-12T07:26:19.488Z,100.00
2023-02-12T07:29:41.493Z,100.00
2023-02-12T07:33:04.171Z,100.00
2023-02-12T07:36:28.919Z,100.00
2023-02-12T07:39:52.869Z,100.00
2023-02-12T07:43:14.671Z,100.00
2023-02-12T07:46:39.138Z,100.00
2023-02-12T07:50:00.836Z,100.00
2023-02-12T07:53:22.880Z,100.00
2023-02-12T07:56:48.117Z,100.00
2023-02-12T08:00:11.746Z,100.00
2023-02-12T08:03:33.756Z,100.00
2023-02-12T08:06:57.037Z,100.00
2023-02-12T08:10:22.423Z,100.00
2023-02-12T08:13:46.275Z,100.00
2023-02-12T08:17:08.583Z,100.00
2023-02-12T08:20:30.874Z,100.00
2023-02-12T08:23:53.043Z,100.00
2023-02-12T08:27:14.839Z,100.00
2023-02-12T08:30:38.054Z,100.00
2023-02-12T08:34:01.258Z,100.00
2023-02-12T08:37:23.180Z,100.00
2023-02-12T08:40:45.432Z,100.00
2023-02-12T08:44:07.496Z,100.00
2023-02-12T08:47:31.431Z,100.00
2023-02-12T08:50:53.422Z,100.00
2023-02-12T08:54:17.327Z,100.00
2023-02-12T08:57:39.259Z,100.00
2023-02-12T09:01:01.131Z,100.00
2023-02-12T09:04:26.456Z,100.00
2023-02-12T09:07:49.139Z,100.00
2023-02-12T09:11:12.897Z,100.00
2023-02-12T09:14:35.225Z,100.00
2023-02-12T09:18:04.131Z,100.00
2023-02-12T09:21:27.801Z,100.00
2023-02-12T09:24:49.748Z,100.00
2023-02-12T09:28:12.821Z,100.00
2023-02-12T09:31:34.941Z,100.00
2023-02-12T09:34:56.950Z,100.00
2023-02-12T09:38:20.174Z,100.00
2023-02-12T09:42:05.619Z,100.00
2023-02-12T09:45:30.083Z,100.00
2023-02-12T10:10:09.983Z,100.00
2023-02-12T10:13:42.555Z,100.00
2023-02-12T10:17:14.591Z,100.00
2023-02-12T10:20:56.398Z,100.00
2023-02-12T10:24:35.413Z,100.00
2023-02-12T10:28:02.891Z,100.00
2023-02-12T10:31:31.355Z,100.00
2023-02-12T10:34:55.145Z,100.00
2023-02-12T10:38:21.269Z,100.00
2023-02-12T10:41:48.978Z,100.00
2023-02-12T10:45:17.581Z,100.00
2023-02-12T10:48:42.000Z,100.00
2023-02-12T10:52:16.329Z,100.00
2023-02-12T10:55:38.357Z,100.00
2023-02-12T10:59:01.612Z,100.00
2023-02-12T11:02:31.208Z,99.52
2023-02-12T11:05:54.531Z,99.28
2023-02-12T11:09:29.978Z,98.87
2023-02-12T11:12:52.001Z,98.17
2023-02-12T11:16:14.311Z,98.53
2023-02-12T11:19:37.605Z,98.44
2023-02-12T11:23:00.869Z,98.70
2023-02-12T11:26:30.078Z,98.21
2023-02-12T11:30:17.527Z,98.08
2023-02-12T11:33:39.554Z,97.97
2023-02-12T11:37:03.610Z,97.44
2023-02-12T11:40:28.098Z,97.42
2023-02-12T11:43:51.966Z,96.84
2023-02-12T11:47:25.307Z,96.76
2023-02-12T11:50:49.694Z,96.95
2023-02-12T11:54:21.697Z,96.46
2023-02-12T11:57:47.850Z,95.92
2023-02-12T12:01:19.741Z,96.22
2023-02-12T12:04:42.997Z,95.59
2023-02-12T12:08:12.347Z,96.10
2023-02-12T12:11:49.551Z,96.12
2023-02-12T12:15:39.361Z,95.78
2023-02-12T12:19:23.960Z,96.24
2023-02-12T12:22:55.638Z,94.97
2023-02-12T12:26:25.054Z,95.21
2023-02-12T12:29:54.561Z,95.03
2023-02-12T12:33:23.033Z,95.58
2023-02-12T12:37:02.583Z,95.79
2023-02-12T12:40:40.642Z,95.13
2023-02-12T12:44:18.743Z,95.00
2023-02-12T12:47:59.324Z,94.85
2023-02-12T12:51:33.854Z,95.26
2023-02-12T12:55:13.945Z,95.23
2023-02-12T12:58:46.645Z,95.61
2023-02-12T13:02:46.097Z,95.70
2023-02-12T13:06:41.261Z,95.89
2023-02-12T13:10:23.329Z,95.55
2023-02-12T13:13:48.704Z,96.61
2023-02-12T13:17:16.635Z,96.71
2023-02-12T13:20:47.632Z,97.15
2023-02-12T13:24:25.943Z,97.48
2023-02-12T13:27:49.479Z,97.34
2023-02-12T13:34:59.521Z,97.70
2023-02-12T13:38:27.085Z,98.01
2023-02-12T13:42:10.337Z,98.54
2023-02-12T13:45:42.830Z,98.91
2023-02-12T13:49:18.440Z,99.22
2023-02-12T13:52:50.103Z,99.36
2023-02-12T13:56:27.954Z,99.76
2023-02-12T13:59:53.886Z,100.00
2023-02-12T14:03:16.061Z,99.94
2023-02-12T14:06:38.051Z,99.95
2023-02-12T14:10:06.847Z,100.00
2023-02-12T14:13:34.290Z,100.00
2023-02-12T14:16:57.903Z,100.00
2023-02-12T14:20:26.751Z,100.00
2023-02-12T14:23:50.858Z,100.00
2023-02-12T14:27:23.326Z,100.00
2023-02-12T14:30:45.411Z,100.00
2023-02-12T14:34:40.829Z,100.00
2023-02-12T14:38:05.170Z,100.00
2023-02-12T14:41:42.856Z,100.00
2023-02-12T14:45:05.086Z,100.00
2023-02-12T14:48:42.348Z,100.00
2023-02-12T14:52:14.621Z,100.00
2023-02-12T14:55:37.029Z,100.00
2023-02-12T14:59:03.479Z,100.00
2023-02-12T15:02:28.174Z,100.00
2023-02-12T15:05:57.354Z,100.00
2023-02-12T15:09:30.954Z,100.00
2023-02-12T15:12:59.113Z,100.00
2023-02-12T15:16:31.284Z,100.00
2023-02-12T15:20:00.014Z,100.00
2023-02-12T15:23:37.583Z,100.00
2023-02-12T15:27:01.737Z,100.00
2023-02-12T15:30:27.078Z,100.00
2023-02-12T15:33:50.979Z,100.00
2023-02-12T15:37:21.362Z,100.00
2023-02-12T15:40:56.093Z,100.00
2023-02-12T15:44:26.406Z,100.00
2023-02-12T15:48:00.315Z,100.00
2023-02-12T15:51:28.736Z,100.00
2023-02-12T15:54:51.188Z,100.00
2023-02-12T15:58:22.894Z,100.00
2023-02-12T16:01:54.775Z,100.00
2023-02-12T16:05:17.931Z,100.00
2023-02-12T16:08:41.221Z,100.00
2023-02-12T16:12:10.301Z,100.00
2023-02-12T16:15:35.591Z,100.00
2023-02-12T16:19:18.850Z,100.00
2023-02-12T16:22:42.730Z,100.00
2023-02-12T16:26:05.441Z,100.00
2023-02-12T16:29:27.654Z,100.00
2023-02-12T16:32:49.722Z,100.00
2023-02-12T16:36:27.708Z,100.00
2023-02-12T16:40:21.562Z,100.00
2023-02-12T16:43:43.624Z,100.00
2023-02-12T16:47:05.874Z,100.00
2023-02-12T16:50:30.749Z,100.00
2023-02-12T16:53:57.711Z,100.00
2023-02-12T16:57:20.212Z,100.00
2023-02-12T17:00:42.835Z,100.00
2023-02-12T17:04:08.738Z,100.00
2023-02-12T17:07:31.251Z,100.00
2023-02-12T17:10:54.652Z,100.00
2023-02-12T17:14:18.328Z,100.00
2023-02-12T17:17:40.677Z,100.00
2023-02-12T17:21:06.038Z,100.00
2023-02-12T17:24:30.440Z,100.00
2023-02-12T17:27:53.706Z,100.00
2023-02-12T17:31:16.106Z,100.00
2023-02-12T17:34:48.002Z,100.00
2023-02-12T17:38:11.217Z,100.00
2023-02-12T17:41:33.422Z,100.00
2023-02-12T17:44:56.607Z,100.00
2023-02-12T17:48:18.674Z,100.00
2023-02-12T17:51:40.954Z,100.00
2023-02-12T17:55:03.215Z,100.00
2023-02-12T17:58:25.206Z,100.00
2023-02-12T18:01:48.470Z,100.00
2023-02-12T18:05:10.755Z,100.00
2023-02-12T18:08:32.952Z,100.00
2023-02-12T18:11:55.614Z,100.00
2023-02-12T18:15:18.653Z,100.00
2023-02-12T18:18:42.167Z,100.00
2023-02-12T18:22:04.111Z,100.00
2023-02-12T18:25:26.284Z,100.00
2023-02-12T18:28:48.877Z,100.00
2023-02-12T18:32:14.681Z,100.00
2023-02-12T18:35:38.035Z,100.00
2023-02-12T18:39:01.392Z,100.00
2023-02-12T18:42:23.918Z,100.00
2023-02-12T18:45:45.910Z,100.00
2023-02-12T18:49:08.524Z,100.00
2023-02-12T18:52:32.342Z,100.00
2023-02-12T18:55:54.054Z,100.00
2023-02-12T18:59:16.718Z,100.00
2023-02-12T19:02:38.953Z,100.00
2023-02-12T19:06:05.061Z,100.00
2023-02-12T19:09:28.650Z,100.00
2023-02-12T19:12:52.946Z,100.00
2023-02-12T19:16:16.768Z,100.00
2023-02-12T19:19:38.985Z,100.00
2023-02-12T19:23:00.969Z,100.00
2023-02-12T19:26:25.420Z,100.00
2023-02-12T19:29:47.210Z,100.00
2023-02-12T19:33:09.867Z,100.00
2023-02-12T19:36:34.064Z,100.00
2023-02-12T19:39:55.784Z,100.00
2023-02-12T19:43:19.272Z,100.00
2023-02-12T19:46:41.924Z,100.00
2023-02-12T19:50:04.053Z,100.00
2023-02-12T19:53:26.417Z,100.00
2023-02-12T19:56:48.419Z,100.00
2023-02-12T20:00:13.829Z,100.00
2023-02-12T20:03:35.549Z,100.00
2023-02-12T20:06:57.569Z,100.00
2023-02-12T20:10:19.907Z,100.00
2023-02-12T20:13:43.097Z,100.00
2023-02-12T20:17:06.280Z,100.00
2023-02-12T20:20:28.171Z,100.00
2023-02-12T20:23:50.444Z,100.00
2023-02-12T20:27:13.218Z,100.00
2023-02-12T20:30:35.605Z,100.00
2023-02-12T20:34:00.789Z,100.00
2023-02-12T20:37:22.772Z,100.00
2023-02-12T20:40:44.712Z,100.00
2023-02-12T20:44:07.693Z,100.00
2023-02-12T20:47:29.776Z,100.00
2023-02-12T20:50:53.470Z,100.00
2023-02-12T20:54:15.669Z,100.00
2023-02-12T20:57:37.558Z,100.00
2023-02-12T21:01:06.019Z,100.00
2023-02-12T21:04:29.325Z,100.00
2023-02-12T21:07:55.188Z,100.00
2023-02-12T21:11:19.954Z,100.00
2023-02-12T21:14:42.105Z,100.00
2023-02-12T21:18:04.076Z,100.00
2023-02-12T21:21:28.024Z,100.00
2023-02-12T21:24:51.526Z,100.00
2023-02-12T21:28:13.386Z,100.00
2023-02-12T21:31:37.245Z,100.00
2023-02-12T21:34:58.915Z,100.00
2023-02-12T21:38:21.083Z,100.00
2023-02-12T21:41:44.872Z,100.00
2023-02-12T21:45:07.355Z,100.00
2023-02-12T21:48:29.089Z,100.00
2023-02-12T21:51:50.857Z,100.00
2023-02-12T21:55:12.664Z,100.00
2023-02-12T21:58:36.056Z,100.00
2023-02-12T22:01:59.289Z,100.00
2023-02-12T22:05:21.425Z,100.00
2023-02-12T22:08:43.472Z,100.00
2023-02-12T22:12:05.716Z,100.00
2023-02-12T22:15:29.341Z,100.00
2023-02-12T22:18:55.498Z,100.00
2023-02-12T22:22:17.642Z,100.00
2023-02-12T22:25:39.470Z,100.00
2023-02-12T22:29:03.780Z,100.00
2023-02-12T22:32:27.807Z,100.00
2023-02-12T22:35:49.636Z,100.00
2023-02-12T22:39:13.987Z,100.00
2023-02-12T22:42:36.267Z,100.00
2023-02-12T22:45:58.145Z,100.00
2023-02-12T22:49:21.575Z,100.00
2023-02-12T22:52:43.242Z,100.00
2023-02-12T22:56:05.288Z,100.00
2023-02-12T22:59:27.232Z,100.00
2023-02-12T23:02:49.030Z,100.00
2023-02-12T23:06:14.493Z,100.00
2023-02-12T23:09:36.439Z,100.00
2023-02-12T23:12:58.545Z,100.00
2023-02-12T23:16:20.907Z,100.00
2023-02-12T23:19:42.526Z,100.00
2023-02-12T23:23:05.905Z,100.00
2023-02-12T23:26:28.374Z,100.00
2023-02-12T23:29:50.370Z,100.00
2023-02-12T23:33:12.044Z,100.00
2023-02-12T23:36:33.945Z,100.00
2023-02-12T23:39:57.136Z,100.00
2023-02-12T23:43:18.907Z,100.00
2023-02-12T23:46:40.817Z,100.00
2023-02-12T23:50:02.975Z,100.00
2023-02-12T23:53:24.944Z,100.00
2023-02-12T23:56:48.097Z,100.00
